sensor_id;sensor_type;location;lat;lon;timestamp;P1;durP1;ratioP1;P2;durP2;ratioP2
20042;SDS011;10182;52.896;6.496;2023-07-30T00:01:15;16.60;;;6.33;;
20042;SDS011;10182;52.896;6.496;2023-07-30T00:06:18;14.33;;;6.63;;
20042;SDS011;10182;52.896;6.496;2023-07-30T00:11:20;15.13;;;6.50;;
20042;SDS011;10182;52.896;6.496;2023-07-30T00:16:21;14.97;;;7.20;;
20042;SDS011;10182;52.896;6.496;2023-07-30T00:21:24;20.13;;;7.03;;
20042;SDS011;10182;52.896;6.496;2023-07-30T00:26:26;22.40;;;6.70;;
20042;SDS011;10182;52.896;6.496;2023-07-30T00:31:28;15.73;;;6.07;;
20042;SDS011;10182;52.896;6.496;2023-07-30T00:36:31;17.07;;;6.87;;
20042;SDS011;10182;52.896;6.496;2023-07-30T00:41:33;17.43;;;6.80;;
20042;SDS011;10182;52.896;6.496;2023-07-30T00:46:35;17.10;;;6.73;;
20042;SDS011;10182;52.896;6.496;2023-07-30T00:51:38;21.70;;;6.87;;
20042;SDS011;10182;52.896;6.496;2023-07-30T00:56:41;18.13;;;6.57;;
20042;SDS011;10182;52.896;6.496;2023-07-30T01:01:51;20.13;;;7.10;;
20042;SDS011;10182;52.896;6.496;2023-07-30T01:06:54;23.37;;;7.43;;
20042;SDS011;10182;52.896;6.496;2023-07-30T01:11:56;16.83;;;6.70;;
20042;SDS011;10182;52.896;6.496;2023-07-30T01:16:59;15.17;;;6.80;;
20042;SDS011;10182;52.896;6.496;2023-07-30T01:22:02;20.50;;;6.30;;
20042;SDS011;10182;52.896;6.496;2023-07-30T01:27:05;16.17;;;6.87;;
20042;SDS011;10182;52.896;6.496;2023-07-30T01:32:10;14.40;;;6.90;;
20042;SDS011;10182;52.896;6.496;2023-07-30T01:37:14;20.47;;;6.57;;
20042;SDS011;10182;52.896;6.496;2023-07-30T01:42:17;19.37;;;7.13;;
20042;SDS011;10182;52.896;6.496;2023-07-30T01:47:19;19.90;;;6.90;;
20042;SDS011;10182;52.896;6.496;2023-07-30T01:52:22;17.90;;;6.47;;
20042;SDS011;10182;52.896;6.496;2023-07-30T01:57:24;15.47;;;6.07;;
20042;SDS011;10182;52.896;6.496;2023-07-30T02:02:25;19.13;;;6.23;;
20042;SDS011;10182;52.896;6.496;2023-07-30T02:07:28;17.37;;;6.07;;
20042;SDS011;10182;52.896;6.496;2023-07-30T02:12:30;14.63;;;5.87;;
20042;SDS011;10182;52.896;6.496;2023-07-30T02:17:32;16.07;;;5.67;;
20042;SDS011;10182;52.896;6.496;2023-07-30T02:22:35;17.03;;;6.13;;
20042;SDS011;10182;52.896;6.496;2023-07-30T02:27:37;20.03;;;6.50;;
20042;SDS011;10182;52.896;6.496;2023-07-30T02:32:39;15.17;;;5.73;;
20042;SDS011;10182;52.896;6.496;2023-07-30T02:37:42;14.83;;;5.00;;
20042;SDS011;10182;52.896;6.496;2023-07-30T02:42:43;11.10;;;4.87;;
20042;SDS011;10182;52.896;6.496;2023-07-30T02:47:45;15.63;;;5.53;;
20042;SDS011;10182;52.896;6.496;2023-07-30T02:52:48;14.73;;;5.13;;
20042;SDS011;10182;52.896;6.496;2023-07-30T02:57:50;15.40;;;4.80;;
20042;SDS011;10182;52.896;6.496;2023-07-30T03:02:51;15.67;;;5.10;;
20042;SDS011;10182;52.896;6.496;2023-07-30T03:07:54;9.60;;;4.30;;
20042;SDS011;10182;52.896;6.496;2023-07-30T03:12:56;14.17;;;4.47;;
20042;SDS011;10182;52.896;6.496;2023-07-30T03:17:57;14.73;;;5.60;;
20042;SDS011;10182;52.896;6.496;2023-07-30T03:23:00;13.43;;;5.17;;
20042;SDS011;10182;52.896;6.496;2023-07-30T03:28:02;12.70;;;4.83;;
20042;SDS011;10182;52.896;6.496;2023-07-30T03:33:04;11.43;;;4.60;;
20042;SDS011;10182;52.896;6.496;2023-07-30T03:38:07;13.60;;;4.23;;
20042;SDS011;10182;52.896;6.496;2023-07-30T03:43:09;14.70;;;4.93;;
20042;SDS011;10182;52.896;6.496;2023-07-30T03:48:11;18.43;;;4.63;;
20042;SDS011;10182;52.896;6.496;2023-07-30T03:53:14;10.63;;;4.73;;
20042;SDS011;10182;52.896;6.496;2023-07-30T03:58:15;15.63;;;4.87;;
20042;SDS011;10182;52.896;6.496;2023-07-30T04:03:17;14.17;;;4.97;;
20042;SDS011;10182;52.896;6.496;2023-07-30T04:08:20;16.90;;;5.00;;
20042;SDS011;10182;52.896;6.496;2023-07-30T04:13:22;13.70;;;4.60;;
20042;SDS011;10182;52.896;6.496;2023-07-30T04:18:23;9.03;;;4.77;;
20042;SDS011;10182;52.896;6.496;2023-07-30T04:23:26;15.30;;;5.43;;
20042;SDS011;10182;52.896;6.496;2023-07-30T04:28:28;14.40;;;5.33;;
20042;SDS011;10182;52.896;6.496;2023-07-30T04:33:30;11.63;;;4.63;;
20042;SDS011;10182;52.896;6.496;2023-07-30T04:38:33;13.13;;;4.73;;
20042;SDS011;10182;52.896;6.496;2023-07-30T04:43:34;17.70;;;5.80;;
20042;SDS011;10182;52.896;6.496;2023-07-30T04:48:36;15.80;;;5.30;;
20042;SDS011;10182;52.896;6.496;2023-07-30T04:53:39;13.60;;;4.47;;
20042;SDS011;10182;52.896;6.496;2023-07-30T04:58:41;20.77;;;5.77;;
20042;SDS011;10182;52.896;6.496;2023-07-30T05:03:43;20.50;;;5.90;;
20042;SDS011;10182;52.896;6.496;2023-07-30T05:08:46;14.13;;;5.67;;
20042;SDS011;10182;52.896;6.496;2023-07-30T05:13:47;18.77;;;5.60;;
20042;SDS011;10182;52.896;6.496;2023-07-30T05:18:49;17.10;;;5.23;;
20042;SDS011;10182;52.896;6.496;2023-07-30T05:23:52;18.17;;;5.27;;
20042;SDS011;10182;52.896;6.496;2023-07-30T05:28:54;19.33;;;5.37;;
20042;SDS011;10182;52.896;6.496;2023-07-30T05:33:55;12.43;;;4.77;;
20042;SDS011;10182;52.896;6.496;2023-07-30T05:38:58;18.37;;;6.07;;
20042;SDS011;10182;52.896;6.496;2023-07-30T05:44:00;13.37;;;5.87;;
20042;SDS011;10182;52.896;6.496;2023-07-30T05:49:02;17.97;;;6.10;;
20042;SDS011;10182;52.896;6.496;2023-07-30T05:54:05;23.43;;;6.90;;
20042;SDS011;10182;52.896;6.496;2023-07-30T05:59:06;16.70;;;5.90;;
20042;SDS011;10182;52.896;6.496;2023-07-30T06:04:08;25.67;;;7.17;;
20042;SDS011;10182;52.896;6.496;2023-07-30T06:09:11;15.00;;;6.43;;
20042;SDS011;10182;52.896;6.496;2023-07-30T06:14:13;22.13;;;6.50;;
20042;SDS011;10182;52.896;6.496;2023-07-30T06:19:14;17.20;;;6.17;;
20042;SDS011;10182;52.896;6.496;2023-07-30T06:24:18;18.77;;;6.77;;
20042;SDS011;10182;52.896;6.496;2023-07-30T06:29:20;27.93;;;6.37;;
20042;SDS011;10182;52.896;6.496;2023-07-30T06:34:21;16.50;;;5.67;;
20042;SDS011;10182;52.896;6.496;2023-07-30T06:39:24;22.43;;;6.20;;
20042;SDS011;10182;52.896;6.496;2023-07-30T06:44:26;16.83;;;6.17;;
20042;SDS011;10182;52.896;6.496;2023-07-30T06:49:28;20.80;;;5.37;;
20042;SDS011;10182;52.896;6.496;2023-07-30T06:54:31;19.33;;;5.43;;
20042;SDS011;10182;52.896;6.496;2023-07-30T06:59:33;16.10;;;5.97;;
20042;SDS011;10182;52.896;6.496;2023-07-30T07:04:35;16.93;;;5.23;;
20042;SDS011;10182;52.896;6.496;2023-07-30T07:09:38;20.47;;;5.07;;
20042;SDS011;10182;52.896;6.496;2023-07-30T07:14:39;15.93;;;5.33;;
20042;SDS011;10182;52.896;6.496;2023-07-30T07:19:43;17.77;;;5.30;;
20042;SDS011;10182;52.896;6.496;2023-07-30T07:24:46;18.10;;;5.03;;
20042;SDS011;10182;52.896;6.496;2023-07-30T07:29:48;12.10;;;4.17;;
20042;SDS011;10182;52.896;6.496;2023-07-30T07:34:50;13.73;;;4.37;;
20042;SDS011;10182;52.896;6.496;2023-07-30T07:39:53;13.03;;;4.10;;
20042;SDS011;10182;52.896;6.496;2023-07-30T07:44:55;17.93;;;4.43;;
20042;SDS011;10182;52.896;6.496;2023-07-30T07:49:56;14.13;;;4.07;;
20042;SDS011;10182;52.896;6.496;2023-07-30T07:54:59;20.77;;;4.40;;
20042;SDS011;10182;52.896;6.496;2023-07-30T08:00:01;13.53;;;4.17;;
20042;SDS011;10182;52.896;6.496;2023-07-30T08:05:05;12.23;;;3.90;;
20042;SDS011;10182;52.896;6.496;2023-07-30T08:10:09;13.53;;;3.47;;
20042;SDS011;10182;52.896;6.496;2023-07-30T08:15:11;17.33;;;3.73;;
20042;SDS011;10182;52.896;6.496;2023-07-30T08:20:12;14.93;;;4.00;;
20042;SDS011;10182;52.896;6.496;2023-07-30T08:25:16;12.50;;;3.97;;
20042;SDS011;10182;52.896;6.496;2023-07-30T08:30:18;15.23;;;4.03;;
20042;SDS011;10182;52.896;6.496;2023-07-30T08:35:19;7.17;;;2.70;;
20042;SDS011;10182;52.896;6.496;2023-07-30T08:40:23;6.87;;;3.20;;
20042;SDS011;10182;52.896;6.496;2023-07-30T08:45:25;11.83;;;3.40;;
20042;SDS011;10182;52.896;6.496;2023-07-30T08:50:27;16.47;;;3.90;;
20042;SDS011;10182;52.896;6.496;2023-07-30T08:55:30;13.77;;;3.13;;
20042;SDS011;10182;52.896;6.496;2023-07-30T09:00:34;17.93;;;5.77;;
20042;SDS011;10182;52.896;6.496;2023-07-30T09:05:38;9.77;;;3.50;;
20042;SDS011;10182;52.896;6.496;2023-07-30T09:10:41;9.67;;;3.30;;
20042;SDS011;10182;52.896;6.496;2023-07-30T09:15:43;9.20;;;3.47;;
20042;SDS011;10182;52.896;6.496;2023-07-30T09:20:49;9.83;;;3.77;;
20042;SDS011;10182;52.896;6.496;2023-07-30T09:25:52;13.70;;;5.23;;
20042;SDS011;10182;52.896;6.496;2023-07-30T09:30:59;13.67;;;4.07;;
20042;SDS011;10182;52.896;6.496;2023-07-30T09:36:02;9.57;;;3.13;;
20042;SDS011;10182;52.896;6.496;2023-07-30T09:41:05;7.03;;;2.97;;
20042;SDS011;10182;52.896;6.496;2023-07-30T09:46:07;7.97;;;2.80;;
20042;SDS011;10182;52.896;6.496;2023-07-30T09:51:09;8.63;;;3.63;;
20042;SDS011;10182;52.896;6.496;2023-07-30T09:56:12;8.40;;;3.30;;
20042;SDS011;10182;52.896;6.496;2023-07-30T10:01:14;8.10;;;2.60;;
20042;SDS011;10182;52.896;6.496;2023-07-30T10:06:16;5.47;;;2.50;;
20042;SDS011;10182;52.896;6.496;2023-07-30T10:11:20;7.20;;;3.00;;
20042;SDS011;10182;52.896;6.496;2023-07-30T10:16:25;7.90;;;2.57;;
20042;SDS011;10182;52.896;6.496;2023-07-30T10:21:27;5.30;;;3.13;;
20042;SDS011;10182;52.896;6.496;2023-07-30T10:26:34;10.60;;;3.10;;
20042;SDS011;10182;52.896;6.496;2023-07-30T10:31:40;4.93;;;2.60;;
20042;SDS011;10182;52.896;6.496;2023-07-30T10:36:43;6.47;;;2.70;;
20042;SDS011;10182;52.896;6.496;2023-07-30T10:41:48;8.47;;;3.10;;
20042;SDS011;10182;52.896;6.496;2023-07-30T10:46:51;9.43;;;3.20;;
20042;SDS011;10182;52.896;6.496;2023-07-30T10:51:53;7.93;;;2.70;;
20042;SDS011;10182;52.896;6.496;2023-07-30T10:56:57;10.13;;;3.37;;
20042;SDS011;10182;52.896;6.496;2023-07-30T11:01:59;7.57;;;2.60;;
20042;SDS011;10182;52.896;6.496;2023-07-30T11:07:03;9.77;;;2.90;;
20042;SDS011;10182;52.896;6.496;2023-07-30T11:12:08;11.83;;;2.60;;
20042;SDS011;10182;52.896;6.496;2023-07-30T11:17:10;10.37;;;2.47;;
20042;SDS011;10182;52.896;6.496;2023-07-30T11:22:12;8.77;;;2.40;;
20042;SDS011;10182;52.896;6.496;2023-07-30T11:27:15;10.87;;;2.27;;
20042;SDS011;10182;52.896;6.496;2023-07-30T11:32:17;8.70;;;1.83;;
20042;SDS011;10182;52.896;6.496;2023-07-30T11:37:19;10.47;;;2.43;;
20042;SDS011;10182;52.896;6.496;2023-07-30T11:42:23;12.13;;;2.37;;
20042;SDS011;10182;52.896;6.496;2023-07-30T11:47:26;5.30;;;1.70;;
20042;SDS011;10182;52.896;6.496;2023-07-30T11:52:28;6.60;;;2.00;;
20042;SDS011;10182;52.896;6.496;2023-07-30T11:57:34;7.83;;;1.97;;
20042;SDS011;10182;52.896;6.496;2023-07-30T12:02:37;8.77;;;1.80;;
20042;SDS011;10182;52.896;6.496;2023-07-30T12:07:40;7.03;;;2.10;;
20042;SDS011;10182;52.896;6.496;2023-07-30T12:12:46;10.33;;;2.73;;
20042;SDS011;10182;52.896;6.496;2023-07-30T12:17:52;6.97;;;2.30;;
20042;SDS011;10182;52.896;6.496;2023-07-30T12:22:54;5.33;;;1.97;;
20042;SDS011;10182;52.896;6.496;2023-07-30T12:27:57;5.83;;;2.07;;
20042;SDS011;10182;52.896;6.496;2023-07-30T12:32:59;7.90;;;2.53;;
20042;SDS011;10182;52.896;6.496;2023-07-30T12:38:01;10.23;;;2.07;;
20042;SDS011;10182;52.896;6.496;2023-07-30T12:43:04;4.70;;;2.03;;
20042;SDS011;10182;52.896;6.496;2023-07-30T12:48:06;1.50;;;0.80;;
20042;SDS011;10182;52.896;6.496;2023-07-30T12:53:08;5.70;;;1.70;;
20042;SDS011;10182;52.896;6.496;2023-07-30T12:58:11;4.97;;;1.70;;
20042;SDS011;10182;52.896;6.496;2023-07-30T13:03:13;6.70;;;1.90;;
20042;SDS011;10182;52.896;6.496;2023-07-30T13:08:15;6.33;;;2.03;;
20042;SDS011;10182;52.896;6.496;2023-07-30T13:13:18;6.97;;;1.93;;
20042;SDS011;10182;52.896;6.496;2023-07-30T13:18:19;6.67;;;1.87;;
20042;SDS011;10182;52.896;6.496;2023-07-30T13:23:21;8.00;;;2.40;;
20042;SDS011;10182;52.896;6.496;2023-07-30T13:28:26;6.53;;;2.07;;
20042;SDS011;10182;52.896;6.496;2023-07-30T13:33:28;7.00;;;2.17;;
20042;SDS011;10182;52.896;6.496;2023-07-30T13:38:30;7.63;;;1.87;;
20042;SDS011;10182;52.896;6.496;2023-07-30T13:43:33;7.47;;;2.63;;
20042;SDS011;10182;52.896;6.496;2023-07-30T13:48:34;5.93;;;2.23;;
20042;SDS011;10182;52.896;6.496;2023-07-30T13:53:36;9.00;;;2.47;;
20042;SDS011;10182;52.896;6.496;2023-07-30T13:58:42;6.10;;;2.00;;
20042;SDS011;10182;52.896;6.496;2023-07-30T14:03:44;5.27;;;1.90;;
20042;SDS011;10182;52.896;6.496;2023-07-30T14:08:46;7.00;;;1.77;;
20042;SDS011;10182;52.896;6.496;2023-07-30T14:13:49;2.83;;;1.10;;
20042;SDS011;10182;52.896;6.496;2023-07-30T14:18:50;4.93;;;1.10;;
20042;SDS011;10182;52.896;6.496;2023-07-30T14:23:52;2.90;;;1.10;;
20042;SDS011;10182;52.896;6.496;2023-07-30T14:28:55;5.73;;;1.60;;
20042;SDS011;10182;52.896;6.496;2023-07-30T14:33:57;5.30;;;1.70;;
20042;SDS011;10182;52.896;6.496;2023-07-30T14:38:59;7.87;;;2.37;;
20042;SDS011;10182;52.896;6.496;2023-07-30T14:44:02;6.67;;;1.97;;
20042;SDS011;10182;52.896;6.496;2023-07-30T14:49:04;8.40;;;1.57;;
20042;SDS011;10182;52.896;6.496;2023-07-30T14:54:05;6.53;;;1.93;;
20042;SDS011;10182;52.896;6.496;2023-07-30T14:59:08;4.30;;;1.27;;
20042;SDS011;10182;52.896;6.496;2023-07-30T15:04:10;6.23;;;1.67;;
20042;SDS011;10182;52.896;6.496;2023-07-30T15:09:12;6.03;;;1.70;;
20042;SDS011;10182;52.896;6.496;2023-07-30T15:14:15;7.47;;;2.07;;
20042;SDS011;10182;52.896;6.496;2023-07-30T15:19:16;5.90;;;1.93;;
20042;SDS011;10182;52.896;6.496;2023-07-30T15:24:18;4.87;;;1.67;;
20042;SDS011;10182;52.896;6.496;2023-07-30T15:29:21;5.60;;;2.03;;
20042;SDS011;10182;52.896;6.496;2023-07-30T15:34:23;5.33;;;1.83;;
20042;SDS011;10182;52.896;6.496;2023-07-30T15:39:25;7.20;;;2.10;;
20042;SDS011;10182;52.896;6.496;2023-07-30T15:44:28;5.40;;;2.03;;
20042;SDS011;10182;52.896;6.496;2023-07-30T15:49:30;7.17;;;1.83;;
20042;SDS011;10182;52.896;6.496;2023-07-30T15:54:32;7.97;;;1.97;;
20042;SDS011;10182;52.896;6.496;2023-07-30T15:59:36;12.00;;;2.10;;
20042;SDS011;10182;52.896;6.496;2023-07-30T16:04:38;7.67;;;1.70;;
20042;SDS011;10182;52.896;6.496;2023-07-30T16:09:40;6.70;;;2.00;;
20042;SDS011;10182;52.896;6.496;2023-07-30T16:14:43;6.00;;;2.07;;
20042;SDS011;10182;52.896;6.496;2023-07-30T16:19:45;6.57;;;2.00;;
20042;SDS011;10182;52.896;6.496;2023-07-30T16:24:46;4.93;;;1.77;;
20042;SDS011;10182;52.896;6.496;2023-07-30T16:29:50;5.77;;;2.13;;
20042;SDS011;10182;52.896;6.496;2023-07-30T16:34:51;7.13;;;2.10;;
20042;SDS011;10182;52.896;6.496;2023-07-30T16:39:53;5.23;;;1.43;;
20042;SDS011;10182;52.896;6.496;2023-07-30T16:44:56;6.20;;;2.00;;
20042;SDS011;10182;52.896;6.496;2023-07-30T16:49:59;8.87;;;2.00;;
20042;SDS011;10182;52.896;6.496;2023-07-30T16:55:01;7.90;;;1.77;;
20042;SDS011;10182;52.896;6.496;2023-07-30T17:00:04;5.77;;;1.80;;
20042;SDS011;10182;52.896;6.496;2023-07-30T17:05:07;8.47;;;2.33;;
20042;SDS011;10182;52.896;6.496;2023-07-30T17:10:09;11.33;;;2.43;;
20042;SDS011;10182;52.896;6.496;2023-07-30T17:15:13;7.23;;;2.10;;
20042;SDS011;10182;52.896;6.496;2023-07-30T17:20:15;12.63;;;2.90;;
20042;SDS011;10182;52.896;6.496;2023-07-30T17:25:17;7.43;;;2.43;;
20042;SDS011;10182;52.896;6.496;2023-07-30T17:30:20;11.00;;;2.60;;
20042;SDS011;10182;52.896;6.496;2023-07-30T17:35:22;9.50;;;2.70;;
20042;SDS011;10182;52.896;6.496;2023-07-30T17:40:23;6.90;;;2.63;;
20042;SDS011;10182;52.896;6.496;2023-07-30T17:45:27;8.70;;;2.67;;
20042;SDS011;10182;52.896;6.496;2023-07-30T17:50:30;10.67;;;2.93;;
20042;SDS011;10182;52.896;6.496;2023-07-30T17:55:32;11.23;;;2.90;;
20042;SDS011;10182;52.896;6.496;2023-07-30T18:00:35;12.43;;;3.10;;
20042;SDS011;10182;52.896;6.496;2023-07-30T18:05:43;13.33;;;3.80;;
20042;SDS011;10182;52.896;6.496;2023-07-30T18:10:46;11.27;;;3.50;;
20042;SDS011;10182;52.896;6.496;2023-07-30T18:15:49;16.03;;;3.90;;
20042;SDS011;10182;52.896;6.496;2023-07-30T18:20:51;15.70;;;4.07;;
20042;SDS011;10182;52.896;6.496;2023-07-30T18:25:53;9.07;;;2.90;;
20042;SDS011;10182;52.896;6.496;2023-07-30T18:30:56;11.93;;;3.57;;
20042;SDS011;10182;52.896;6.496;2023-07-30T18:35:57;12.50;;;4.00;;
20042;SDS011;10182;52.896;6.496;2023-07-30T18:41:01;12.53;;;3.70;;
20042;SDS011;10182;52.896;6.496;2023-07-30T18:46:05;13.80;;;3.80;;
20042;SDS011;10182;52.896;6.496;2023-07-30T18:51:06;17.20;;;4.47;;
20042;SDS011;10182;52.896;6.496;2023-07-30T18:56:08;12.47;;;3.80;;
20042;SDS011;10182;52.896;6.496;2023-07-30T19:01:11;11.57;;;4.10;;
20042;SDS011;10182;52.896;6.496;2023-07-30T19:06:13;12.40;;;4.23;;
20042;SDS011;10182;52.896;6.496;2023-07-30T19:11:14;16.53;;;4.67;;
20042;SDS011;10182;52.896;6.496;2023-07-30T19:16:17;14.17;;;4.27;;
20042;SDS011;10182;52.896;6.496;2023-07-30T19:21:19;14.67;;;3.87;;
20042;SDS011;10182;52.896;6.496;2023-07-30T19:26:21;12.60;;;4.17;;
20042;SDS011;10182;52.896;6.496;2023-07-30T19:31:24;12.63;;;3.73;;
20042;SDS011;10182;52.896;6.496;2023-07-30T19:36:26;13.20;;;3.90;;
20042;SDS011;10182;52.896;6.496;2023-07-30T19:41:27;17.97;;;3.87;;
20042;SDS011;10182;52.896;6.496;2023-07-30T19:46:30;10.63;;;3.67;;
20042;SDS011;10182;52.896;6.496;2023-07-30T19:51:32;10.47;;;3.67;;
20042;SDS011;10182;52.896;6.496;2023-07-30T19:56:34;13.87;;;3.93;;
20042;SDS011;10182;52.896;6.496;2023-07-30T20:01:37;10.67;;;3.27;;
20042;SDS011;10182;52.896;6.496;2023-07-30T20:06:38;12.93;;;3.73;;
20042;SDS011;10182;52.896;6.496;2023-07-30T20:11:41;9.73;;;2.87;;
20042;SDS011;10182;52.896;6.496;2023-07-30T20:16:44;9.93;;;3.47;;
20042;SDS011;10182;52.896;6.496;2023-07-30T20:21:45;5.73;;;2.60;;
20042;SDS011;10182;52.896;6.496;2023-07-30T20:26:48;8.27;;;2.80;;
20042;SDS011;10182;52.896;6.496;2023-07-30T20:31:52;9.50;;;3.20;;
20042;SDS011;10182;52.896;6.496;2023-07-30T20:36:55;6.70;;;2.87;;
20042;SDS011;10182;52.896;6.496;2023-07-30T20:41:57;8.27;;;3.30;;
20042;SDS011;10182;52.896;6.496;2023-07-30T20:47:00;6.07;;;2.93;;
20042;SDS011;10182;52.896;6.496;2023-07-30T20:52:02;6.30;;;3.43;;
20042;SDS011;10182;52.896;6.496;2023-07-30T20:57:04;7.20;;;3.40;;
20042;SDS011;10182;52.896;6.496;2023-07-30T21:02:07;5.80;;;3.30;;
20042;SDS011;10182;52.896;6.496;2023-07-30T21:07:09;8.33;;;3.20;;
20042;SDS011;10182;52.896;6.496;2023-07-30T21:12:11;6.90;;;3.83;;
20042;SDS011;10182;52.896;6.496;2023-07-30T21:17:15;7.87;;;3.57;;
20042;SDS011;10182;52.896;6.496;2023-07-30T21:22:18;4.93;;;3.50;;
20042;SDS011;10182;52.896;6.496;2023-07-30T21:27:19;7.37;;;3.40;;
20042;SDS011;10182;52.896;6.496;2023-07-30T21:32:22;6.67;;;3.60;;
20042;SDS011;10182;52.896;6.496;2023-07-30T21:37:24;5.00;;;3.67;;
20042;SDS011;10182;52.896;6.496;2023-07-30T21:42:26;6.00;;;3.63;;
20042;SDS011;10182;52.896;6.496;2023-07-30T21:47:30;5.47;;;3.60;;
20042;SDS011;10182;52.896;6.496;2023-07-30T21:52:31;8.07;;;3.70;;
20042;SDS011;10182;52.896;6.496;2023-07-30T21:57:33;6.00;;;3.90;;
20042;SDS011;10182;52.896;6.496;2023-07-30T22:02:36;6.07;;;4.20;;
20042;SDS011;10182;52.896;6.496;2023-07-30T22:07:38;7.17;;;4.70;;
20042;SDS011;10182;52.896;6.496;2023-07-30T22:12:39;6.17;;;4.80;;
20042;SDS011;10182;52.896;6.496;2023-07-30T22:17:42;7.30;;;4.50;;
20042;SDS011;10182;52.896;6.496;2023-07-30T22:22:45;5.93;;;3.77;;
20042;SDS011;10182;52.896;6.496;2023-07-30T22:27:46;4.00;;;3.70;;
20042;SDS011;10182;52.896;6.496;2023-07-30T22:32:49;3.73;;;3.10;;
20042;SDS011;10182;52.896;6.496;2023-07-30T22:37:51;8.17;;;3.57;;
20042;SDS011;10182;52.896;6.496;2023-07-30T22:42:53;4.10;;;2.90;;
20042;SDS011;10182;52.896;6.496;2023-07-30T22:47:56;3.87;;;3.33;;
20042;SDS011;10182;52.896;6.496;2023-07-30T22:52:57;4.07;;;3.33;;
20042;SDS011;10182;52.896;6.496;2023-07-30T22:57:59;4.40;;;3.80;;
20042;SDS011;10182;52.896;6.496;2023-07-30T23:03:02;4.73;;;3.80;;
20042;SDS011;10182;52.896;6.496;2023-07-30T23:08:04;4.90;;;3.67;;
20042;SDS011;10182;52.896;6.496;2023-07-30T23:13:05;4.03;;;3.30;;
20042;SDS011;10182;52.896;6.496;2023-07-30T23:18:10;4.87;;;3.60;;
20042;SDS011;10182;52.896;6.496;2023-07-30T23:23:11;5.13;;;3.83;;
20042;SDS011;10182;52.896;6.496;2023-07-30T23:28:13;7.63;;;4.67;;
20042;SDS011;10182;52.896;6.496;2023-07-30T23:33:16;4.83;;;4.10;;
20042;SDS011;10182;52.896;6.496;2023-07-30T23:38:18;7.33;;;4.57;;
20042;SDS011;10182;52.896;6.496;2023-07-30T23:43:19;5.00;;;4.40;;
20042;SDS011;10182;52.896;6.496;2023-07-30T23:48:22;6.10;;;5.13;;
20042;SDS011;10182;52.896;6.496;2023-07-30T23:53:24;5.60;;;5.10;;
20042;SDS011;10182;52.896;6.496;2023-07-30T23:58:26;8.00;;;5.13;;
